sensor_id;sensor_type;location;lat;lon;timestamp;P1;durP1;ratioP1;P2;durP2;ratioP2
353;SDS011;165;53.592;10.044;2022-12-18T09:58:39;26.37;;;25.07;;
353;SDS011;165;53.592;10.044;2022-12-18T10:01:11;25.10;;;23.90;;
353;SDS011;165;53.592;10.044;2022-12-18T10:03:41;25.60;;;24.30;;
353;SDS011;165;53.592;10.044;2022-12-18T10:06:08;24.60;;;23.40;;
353;SDS011;165;53.592;10.044;2022-12-18T10:11:24;26.10;;;24.80;;
353;SDS011;165;53.592;10.044;2022-12-18T10:17:15;25.97;;;24.67;;
353;SDS011;165;53.592;10.044;2022-12-18T10:20:10;26.87;;;25.57;;
353;SDS011;165;53.592;10.044;2022-12-18T10:22:58;25.23;;;23.97;;
353;SDS011;165;53.592;10.044;2022-12-18T10:28:13;26.10;;;24.80;;
353;SDS011;165;53.592;10.044;2022-12-18T10:30:40;24.03;;;22.83;;
353;SDS011;165;53.592;10.044;2022-12-18T10:33:11;26.30;;;25.00;;
353;SDS011;165;53.592;10.044;2022-12-18T10:35:43;26.63;;;25.33;;
353;SDS011;165;53.592;10.044;2022-12-18T10:40:49;25.23;;;23.97;;
353;SDS011;165;53.592;10.044;2022-12-18T10:43:22;24.10;;;22.90;;
353;SDS011;165;53.592;10.044;2022-12-18T10:45:59;25.50;;;24.20;;
353;SDS011;165;53.592;10.044;2022-12-18T10:48:33;26.43;;;25.13;;
353;SDS011;165;53.592;10.044;2022-12-18T10:51:29;26.93;;;25.63;;
353;SDS011;165;53.592;10.044;2022-12-18T10:54:01;24.90;;;23.70;;
353;SDS011;165;53.592;10.044;2022-12-18T10:56:41;25.67;;;24.37;;
353;SDS011;165;53.592;10.044;2022-12-18T10:59:16;27.80;;;26.40;;
353;SDS011;165;53.592;10.044;2022-12-18T11:04:13;26.33;;;25.03;;
353;SDS011;165;53.592;10.044;2022-12-18T11:06:54;27.40;;;26.00;;
353;SDS011;165;53.592;10.044;2022-12-18T11:11:58;26.30;;;25.00;;
353;SDS011;165;53.592;10.044;2022-12-18T11:14:26;27.97;;;26.57;;
353;SDS011;165;53.592;10.044;2022-12-18T11:17:16;26.63;;;25.33;;
353;SDS011;165;53.592;10.044;2022-12-18T11:22:57;26.13;;;24.83;;
353;SDS011;165;53.592;10.044;2022-12-18T11:25:28;26.47;;;25.17;;
353;SDS011;165;53.592;10.044;2022-12-18T11:28:41;26.93;;;25.63;;
353;SDS011;165;53.592;10.044;2022-12-18T11:33:42;26.83;;;25.53;;
353;SDS011;165;53.592;10.044;2022-12-18T11:36:16;25.93;;;24.63;;
353;SDS011;165;53.592;10.044;2022-12-18T11:38:43;26.80;;;25.50;;
353;SDS011;165;53.592;10.044;2022-12-18T11:41:24;27.63;;;26.27;;
353;SDS011;165;53.592;10.044;2022-12-18T11:44:13;24.50;;;23.30;;
353;SDS011;165;53.592;10.044;2022-12-18T11:46:45;26.83;;;25.53;;
353;SDS011;165;53.592;10.044;2022-12-18T11:49:15;26.53;;;25.23;;
353;SDS011;165;53.592;10.044;2022-12-18T11:51:58;25.60;;;24.30;;
353;SDS011;165;53.592;10.044;2022-12-18T11:54:29;58.40;;;44.47;;
353;SDS011;165;53.592;10.044;2022-12-18T11:56:56;29.03;;;27.63;;
353;SDS011;165;53.592;10.044;2022-12-18T11:59:43;28.07;;;26.50;;
353;SDS011;165;53.592;10.044;2022-12-18T12:05:19;26.93;;;25.63;;
353;SDS011;165;53.592;10.044;2022-12-18T12:10:58;28.03;;;26.63;;
353;SDS011;165;53.592;10.044;2022-12-18T12:13:57;25.97;;;24.67;;
353;SDS011;165;53.592;10.044;2022-12-18T12:16:29;26.17;;;24.87;;
353;SDS011;165;53.592;10.044;2022-12-18T12:19:11;25.13;;;23.90;;
353;SDS011;165;53.592;10.044;2022-12-18T12:22:00;25.50;;;24.20;;
353;SDS011;165;53.592;10.044;2022-12-18T12:37:53;27.23;;;25.90;;
353;SDS011;165;53.592;10.044;2022-12-18T12:40:22;25.27;;;24.00;;
353;SDS011;165;53.592;10.044;2022-12-18T12:42:52;25.40;;;24.10;;
353;SDS011;165;53.592;10.044;2022-12-18T12:45:41;26.50;;;25.20;;
353;SDS011;165;53.592;10.044;2022-12-18T12:48:59;25.77;;;24.47;;
353;SDS011;165;53.592;10.044;2022-12-18T12:51:32;26.77;;;25.47;;
353;SDS011;165;53.592;10.044;2022-12-18T12:54:00;23.70;;;22.50;;
353;SDS011;165;53.592;10.044;2022-12-18T12:56:36;26.80;;;25.50;;
353;SDS011;165;53.592;10.044;2022-12-18T12:59:30;29.93;;;28.43;;
353;SDS011;165;53.592;10.044;2022-12-18T13:02:28;26.40;;;25.10;;
353;SDS011;165;53.592;10.044;2022-12-18T13:08:10;26.50;;;25.20;;
353;SDS011;165;53.592;10.044;2022-12-18T13:10:39;25.63;;;24.33;;
353;SDS011;165;53.592;10.044;2022-12-18T13:13:08;25.17;;;23.93;;
353;SDS011;165;53.592;10.044;2022-12-18T13:16:06;26.10;;;24.80;;
353;SDS011;165;53.592;10.044;2022-12-18T13:18:33;24.77;;;23.57;;
353;SDS011;165;53.592;10.044;2022-12-18T13:28:50;28.03;;;26.63;;
353;SDS011;165;53.592;10.044;2022-12-18T13:36:43;29.27;;;26.60;;
353;SDS011;165;53.592;10.044;2022-12-18T13:39:10;27.27;;;25.93;;
353;SDS011;165;53.592;10.044;2022-12-18T13:41:40;25.70;;;24.40;;
353;SDS011;165;53.592;10.044;2022-12-18T13:44:11;26.90;;;25.60;;
353;SDS011;165;53.592;10.044;2022-12-18T13:46:58;30.20;;;25.00;;
353;SDS011;165;53.592;10.044;2022-12-18T13:49:27;26.03;;;24.73;;
353;SDS011;165;53.592;10.044;2022-12-18T13:52:02;31.50;;;27.50;;
353;SDS011;165;53.592;10.044;2022-12-18T13:54:39;27.37;;;25.97;;
353;SDS011;165;53.592;10.044;2022-12-18T13:57:24;27.60;;;26.23;;
353;SDS011;165;53.592;10.044;2022-12-18T13:59:52;25.80;;;24.50;;
353;SDS011;165;53.592;10.044;2022-12-18T14:02:20;31.70;;;27.20;;
353;SDS011;165;53.592;10.044;2022-12-18T14:04:50;30.50;;;25.07;;
353;SDS011;165;53.592;10.044;2022-12-18T14:07:18;34.27;;;28.87;;
353;SDS011;165;53.592;10.044;2022-12-18T14:09:49;32.73;;;24.10;;
353;SDS011;165;53.592;10.044;2022-12-18T14:12:32;29.27;;;25.55;;
353;SDS011;165;53.592;10.044;2022-12-18T14:20:52;34.03;;;26.70;;
353;SDS011;165;53.592;10.044;2022-12-18T14:23:30;30.43;;;27.03;;
353;SDS011;165;53.592;10.044;2022-12-18T14:26:19;31.83;;;25.40;;
353;SDS011;165;53.592;10.044;2022-12-18T14:28:57;30.77;;;24.97;;
353;SDS011;165;53.592;10.044;2022-12-18T14:31:26;34.50;;;25.10;;
353;SDS011;165;53.592;10.044;2022-12-18T14:33:55;30.47;;;25.47;;
353;SDS011;165;53.592;10.044;2022-12-18T14:36:23;32.23;;;26.87;;
353;SDS011;165;53.592;10.044;2022-12-18T14:38:54;33.03;;;25.20;;
353;SDS011;165;53.592;10.044;2022-12-18T14:41:21;30.90;;;24.57;;
353;SDS011;165;53.592;10.044;2022-12-18T14:43:48;33.60;;;26.20;;
353;SDS011;165;53.592;10.044;2022-12-18T14:49:01;33.77;;;26.30;;
353;SDS011;165;53.592;10.044;2022-12-18T14:51:30;36.60;;;27.63;;
353;SDS011;165;53.592;10.044;2022-12-18T14:53:58;35.95;;;27.75;;
353;SDS011;165;53.592;10.044;2022-12-18T14:56:26;34.40;;;26.30;;
353;SDS011;165;53.592;10.044;2022-12-18T14:59:14;39.97;;;28.00;;
353;SDS011;165;53.592;10.044;2022-12-18T15:04:45;33.87;;;27.60;;
353;SDS011;165;53.592;10.044;2022-12-18T15:07:16;34.37;;;28.10;;
353;SDS011;165;53.592;10.044;2022-12-18T15:09:44;36.33;;;28.20;;
353;SDS011;165;53.592;10.044;2022-12-18T15:12:41;40.10;;;27.67;;
353;SDS011;165;53.592;10.044;2022-12-18T15:18:00;39.07;;;27.97;;
353;SDS011;165;53.592;10.044;2022-12-18T15:20:31;42.30;;;31.37;;
353;SDS011;165;53.592;10.044;2022-12-18T15:23:12;43.73;;;27.47;;
353;SDS011;165;53.592;10.044;2022-12-18T15:25:48;31.20;;;24.87;;
353;SDS011;165;53.592;10.044;2022-12-18T15:28:43;37.60;;;27.90;;
353;SDS011;165;53.592;10.044;2022-12-18T15:31:28;40.73;;;27.33;;
353;SDS011;165;53.592;10.044;2022-12-18T15:34:04;38.53;;;26.97;;
353;SDS011;165;53.592;10.044;2022-12-18T15:36:45;36.00;;;26.43;;
353;SDS011;165;53.592;10.044;2022-12-18T15:39:11;41.00;;;27.30;;
353;SDS011;165;53.592;10.044;2022-12-18T15:41:38;41.40;;;27.10;;
353;SDS011;165;53.592;10.044;2022-12-18T15:44:15;41.00;;;26.93;;
353;SDS011;165;53.592;10.044;2022-12-18T15:46:47;35.70;;;25.90;;
353;SDS011;165;53.592;10.044;2022-12-18T15:49:13;34.70;;;26.40;;
353;SDS011;165;53.592;10.044;2022-12-18T15:51:38;31.63;;;26.23;;
353;SDS011;165;53.592;10.044;2022-12-18T15:54:04;38.33;;;25.03;;
353;SDS011;165;53.592;10.044;2022-12-18T15:56:36;42.60;;;26.93;;
353;SDS011;165;53.592;10.044;2022-12-18T15:59:41;34.20;;;24.60;;
353;SDS011;165;53.592;10.044;2022-12-18T16:02:10;35.47;;;24.73;;
353;SDS011;165;53.592;10.044;2022-12-18T16:04:41;31.87;;;25.37;;
353;SDS011;165;53.592;10.044;2022-12-18T16:07:07;32.23;;;25.57;;
353;SDS011;165;53.592;10.044;2022-12-18T16:09:32;35.30;;;26.30;;
353;SDS011;165;53.592;10.044;2022-12-18T16:11:58;35.60;;;25.67;;
353;SDS011;165;53.592;10.044;2022-12-18T16:14:27;34.57;;;25.37;;
353;SDS011;165;53.592;10.044;2022-12-18T16:16:57;37.43;;;26.97;;
353;SDS011;165;53.592;10.044;2022-12-18T16:19:24;37.50;;;25.20;;
353;SDS011;165;53.592;10.044;2022-12-18T16:21:51;34.40;;;23.73;;
353;SDS011;165;53.592;10.044;2022-12-18T16:24:23;35.20;;;24.67;;
353;SDS011;165;53.592;10.044;2022-12-18T16:26:50;34.23;;;24.60;;
353;SDS011;165;53.592;10.044;2022-12-18T16:29:18;34.60;;;24.80;;
353;SDS011;165;53.592;10.044;2022-12-18T16:31:51;35.63;;;25.33;;
353;SDS011;165;53.592;10.044;2022-12-18T16:34:18;34.83;;;25.77;;
353;SDS011;165;53.592;10.044;2022-12-18T16:36:49;32.33;;;24.40;;
353;SDS011;165;53.592;10.044;2022-12-18T16:39:14;32.20;;;24.80;;
353;SDS011;165;53.592;10.044;2022-12-18T16:41:40;31.63;;;25.00;;
353;SDS011;165;53.592;10.044;2022-12-18T16:44:06;32.83;;;25.07;;
353;SDS011;165;53.592;10.044;2022-12-18T16:46:32;33.37;;;24.90;;
353;SDS011;165;53.592;10.044;2022-12-18T16:48:58;36.87;;;28.30;;
353;SDS011;165;53.592;10.044;2022-12-18T16:51:26;36.70;;;26.17;;
353;SDS011;165;53.592;10.044;2022-12-18T16:53:52;41.23;;;25.70;;
353;SDS011;165;53.592;10.044;2022-12-18T16:56:19;33.90;;;26.10;;
353;SDS011;165;53.592;10.044;2022-12-18T16:58:51;37.20;;;25.60;;
353;SDS011;165;53.592;10.044;2022-12-18T17:01:18;37.57;;;26.43;;
353;SDS011;165;53.592;10.044;2022-12-18T17:03:43;33.13;;;25.57;;
353;SDS011;165;53.592;10.044;2022-12-18T17:06:09;36.17;;;25.67;;
353;SDS011;165;53.592;10.044;2022-12-18T17:08:34;36.63;;;24.83;;
353;SDS011;165;53.592;10.044;2022-12-18T17:11:04;34.87;;;23.50;;
353;SDS011;165;53.592;10.044;2022-12-18T17:13:31;38.53;;;24.53;;
353;SDS011;165;53.592;10.044;2022-12-18T17:16:01;37.70;;;26.47;;
353;SDS011;165;53.592;10.044;2022-12-18T17:18:28;38.67;;;28.27;;
353;SDS011;165;53.592;10.044;2022-12-18T17:20:57;32.83;;;23.83;;
353;SDS011;165;53.592;10.044;2022-12-18T17:23:28;31.97;;;23.77;;
353;SDS011;165;53.592;10.044;2022-12-18T17:25:54;37.03;;;23.00;;
353;SDS011;165;53.592;10.044;2022-12-18T17:28:24;39.27;;;26.60;;
353;SDS011;165;53.592;10.044;2022-12-18T17:30:51;39.57;;;26.13;;
353;SDS011;165;53.592;10.044;2022-12-18T17:33:17;31.47;;;23.90;;
353;SDS011;165;53.592;10.044;2022-12-18T17:35:42;30.33;;;24.13;;
353;SDS011;165;53.592;10.044;2022-12-18T17:38:08;34.30;;;24.87;;
353;SDS011;165;53.592;10.044;2022-12-18T17:40:34;31.10;;;23.87;;
353;SDS011;165;53.592;10.044;2022-12-18T17:43:02;30.73;;;22.70;;
353;SDS011;165;53.592;10.044;2022-12-18T17:45:28;26.50;;;23.47;;
353;SDS011;165;53.592;10.044;2022-12-18T17:47:53;30.67;;;24.43;;
353;SDS011;165;53.592;10.044;2022-12-18T17:50:20;28.40;;;23.30;;
353;SDS011;165;53.592;10.044;2022-12-18T17:52:46;31.77;;;22.83;;
353;SDS011;165;53.592;10.044;2022-12-18T17:55:11;30.10;;;22.03;;
353;SDS011;165;53.592;10.044;2022-12-18T17:57:37;27.07;;;22.30;;
353;SDS011;165;53.592;10.044;2022-12-18T18:00:05;27.37;;;21.90;;
353;SDS011;165;53.592;10.044;2022-12-18T18:02:31;32.93;;;23.17;;
353;SDS011;165;53.592;10.044;2022-12-18T18:04:56;27.90;;;23.67;;
353;SDS011;165;53.592;10.044;2022-12-18T18:07:22;27.83;;;23.13;;
353;SDS011;165;53.592;10.044;2022-12-18T18:09:47;30.17;;;23.70;;
353;SDS011;165;53.592;10.044;2022-12-18T18:12:14;33.20;;;22.70;;
353;SDS011;165;53.592;10.044;2022-12-18T18:14:58;30.07;;;23.07;;
353;SDS011;165;53.592;10.044;2022-12-18T18:17:24;24.63;;;21.87;;
353;SDS011;165;53.592;10.044;2022-12-18T18:19:49;26.30;;;22.50;;
353;SDS011;165;53.592;10.044;2022-12-18T18:22:15;29.40;;;22.00;;
353;SDS011;165;53.592;10.044;2022-12-18T18:24:40;25.77;;;21.43;;
353;SDS011;165;53.592;10.044;2022-12-18T18:27:10;29.07;;;22.70;;
353;SDS011;165;53.592;10.044;2022-12-18T18:29:36;25.30;;;21.17;;
353;SDS011;165;53.592;10.044;2022-12-18T18:32:01;26.07;;;20.80;;
353;SDS011;165;53.592;10.044;2022-12-18T18:34:28;27.00;;;22.23;;
353;SDS011;165;53.592;10.044;2022-12-18T18:36:55;25.60;;;21.20;;
353;SDS011;165;53.592;10.044;2022-12-18T18:39:23;27.27;;;21.40;;
353;SDS011;165;53.592;10.044;2022-12-18T18:41:49;27.10;;;22.20;;
353;SDS011;165;53.592;10.044;2022-12-18T18:44:16;25.23;;;21.70;;
353;SDS011;165;53.592;10.044;2022-12-18T18:46:44;28.17;;;21.73;;
353;SDS011;165;53.592;10.044;2022-12-18T18:49:40;30.13;;;21.77;;
353;SDS011;165;53.592;10.044;2022-12-18T18:52:06;26.80;;;20.80;;
353;SDS011;165;53.592;10.044;2022-12-18T18:54:32;22.67;;;21.23;;
353;SDS011;165;53.592;10.044;2022-12-18T18:56:57;21.63;;;19.77;;
353;SDS011;165;53.592;10.044;2022-12-18T18:59:24;23.90;;;20.53;;
353;SDS011;165;53.592;10.044;2022-12-18T19:01:50;20.60;;;19.10;;
353;SDS011;165;53.592;10.044;2022-12-18T19:04:16;23.30;;;19.07;;
353;SDS011;165;53.592;10.044;2022-12-18T19:06:42;21.37;;;20.23;;
353;SDS011;165;53.592;10.044;2022-12-18T19:09:10;22.50;;;20.90;;
353;SDS011;165;53.592;10.044;2022-12-18T19:11:36;20.90;;;19.20;;
353;SDS011;165;53.592;10.044;2022-12-18T19:14:21;20.80;;;19.80;;
353;SDS011;165;53.592;10.044;2022-12-18T19:16:46;20.93;;;19.90;;
353;SDS011;165;53.592;10.044;2022-12-18T19:19:12;22.57;;;19.40;;
353;SDS011;165;53.592;10.044;2022-12-18T19:21:45;25.13;;;20.30;;
353;SDS011;165;53.592;10.044;2022-12-18T19:24:14;21.57;;;19.70;;
353;SDS011;165;53.592;10.044;2022-12-18T19:26:42;22.13;;;19.87;;
353;SDS011;165;53.592;10.044;2022-12-18T19:29:16;24.00;;;20.70;;
353;SDS011;165;53.592;10.044;2022-12-18T19:31:42;21.33;;;18.50;;
353;SDS011;165;53.592;10.044;2022-12-18T19:34:08;25.73;;;20.93;;
353;SDS011;165;53.592;10.044;2022-12-18T19:36:36;20.80;;;19.07;;
353;SDS011;165;53.592;10.044;2022-12-18T19:39:12;23.20;;;19.27;;
353;SDS011;165;53.592;10.044;2022-12-18T19:41:40;20.63;;;19.27;;
353;SDS011;165;53.592;10.044;2022-12-18T19:44:24;25.00;;;19.67;;
353;SDS011;165;53.592;10.044;2022-12-18T19:49:26;25.70;;;19.73;;
353;SDS011;165;53.592;10.044;2022-12-18T19:51:51;27.50;;;21.60;;
353;SDS011;165;53.592;10.044;2022-12-18T19:59:24;24.30;;;21.00;;
353;SDS011;165;53.592;10.044;2022-12-18T20:01:50;25.37;;;20.70;;
353;SDS011;165;53.592;10.044;2022-12-18T20:04:17;24.70;;;20.10;;
353;SDS011;165;53.592;10.044;2022-12-18T20:06:48;21.77;;;20.57;;
353;SDS011;165;53.592;10.044;2022-12-18T20:09:16;28.73;;;19.97;;
353;SDS011;165;53.592;10.044;2022-12-18T20:11:45;25.33;;;21.57;;
353;SDS011;165;53.592;10.044;2022-12-18T20:14:12;24.43;;;21.10;;
353;SDS011;165;53.592;10.044;2022-12-18T20:16:38;23.70;;;20.70;;
353;SDS011;165;53.592;10.044;2022-12-18T20:19:05;27.33;;;21.23;;
353;SDS011;165;53.592;10.044;2022-12-18T20:21:30;25.40;;;20.27;;
353;SDS011;165;53.592;10.044;2022-12-18T20:23:56;26.63;;;22.40;;
353;SDS011;165;53.592;10.044;2022-12-18T20:26:23;25.20;;;21.23;;
353;SDS011;165;53.592;10.044;2022-12-18T20:28:49;27.43;;;20.83;;
353;SDS011;165;53.592;10.044;2022-12-18T20:31:15;28.23;;;21.23;;
353;SDS011;165;53.592;10.044;2022-12-18T20:33:41;26.30;;;21.20;;
353;SDS011;165;53.592;10.044;2022-12-18T20:36:07;24.30;;;20.40;;
353;SDS011;165;53.592;10.044;2022-12-18T20:38:37;35.43;;;21.87;;
353;SDS011;165;53.592;10.044;2022-12-18T20:41:07;23.87;;;20.13;;
353;SDS011;165;53.592;10.044;2022-12-18T20:43:40;27.80;;;21.07;;
353;SDS011;165;53.592;10.044;2022-12-18T20:46:07;28.30;;;21.80;;
353;SDS011;165;53.592;10.044;2022-12-18T20:48:34;29.57;;;20.67;;
353;SDS011;165;53.592;10.044;2022-12-18T20:51:01;23.60;;;19.27;;
353;SDS011;165;53.592;10.044;2022-12-18T20:53:29;27.50;;;21.90;;
353;SDS011;165;53.592;10.044;2022-12-18T20:55:57;26.23;;;22.90;;
353;SDS011;165;53.592;10.044;2022-12-18T20:58:22;33.10;;;24.90;;
353;SDS011;165;53.592;10.044;2022-12-18T21:00:48;37.50;;;24.47;;
353;SDS011;165;53.592;10.044;2022-12-18T21:03:15;29.80;;;21.57;;
353;SDS011;165;53.592;10.044;2022-12-18T21:05:41;29.60;;;21.83;;
353;SDS011;165;53.592;10.044;2022-12-18T21:08:10;25.47;;;21.20;;
353;SDS011;165;53.592;10.044;2022-12-18T21:10:35;28.80;;;22.73;;
353;SDS011;165;53.592;10.044;2022-12-18T21:13:01;30.37;;;21.47;;
353;SDS011;165;53.592;10.044;2022-12-18T21:15:28;29.03;;;24.03;;
353;SDS011;165;53.592;10.044;2022-12-18T21:17:53;24.90;;;21.40;;
353;SDS011;165;53.592;10.044;2022-12-18T21:20:19;26.17;;;21.63;;
353;SDS011;165;53.592;10.044;2022-12-18T21:22:44;26.23;;;22.20;;
353;SDS011;165;53.592;10.044;2022-12-18T21:25:10;31.00;;;23.30;;
353;SDS011;165;53.592;10.044;2022-12-18T21:27:36;26.70;;;21.40;;
353;SDS011;165;53.592;10.044;2022-12-18T21:30:01;23.67;;;21.90;;
353;SDS011;165;53.592;10.044;2022-12-18T21:32:27;27.33;;;21.03;;
353;SDS011;165;53.592;10.044;2022-12-18T21:34:53;31.80;;;24.50;;
353;SDS011;165;53.592;10.044;2022-12-18T21:37:19;30.53;;;24.63;;
353;SDS011;165;53.592;10.044;2022-12-18T21:39:45;38.53;;;26.77;;
353;SDS011;165;53.592;10.044;2022-12-18T21:42:10;29.47;;;23.67;;
353;SDS011;165;53.592;10.044;2022-12-18T21:44:55;31.90;;;22.80;;
353;SDS011;165;53.592;10.044;2022-12-18T21:47:20;27.30;;;21.53;;
353;SDS011;165;53.592;10.044;2022-12-18T21:49:46;29.97;;;24.30;;
353;SDS011;165;53.592;10.044;2022-12-18T21:52:12;29.30;;;22.47;;
353;SDS011;165;53.592;10.044;2022-12-18T21:54:37;33.00;;;24.40;;
353;SDS011;165;53.592;10.044;2022-12-18T21:57:03;30.70;;;24.97;;
353;SDS011;165;53.592;10.044;2022-12-18T21:59:38;28.23;;;22.43;;
353;SDS011;165;53.592;10.044;2022-12-18T22:02:07;27.60;;;22.57;;
353;SDS011;165;53.592;10.044;2022-12-18T22:04:36;42.87;;;24.37;;
353;SDS011;165;53.592;10.044;2022-12-18T22:07:02;25.63;;;21.97;;
353;SDS011;165;53.592;10.044;2022-12-18T22:09:30;30.53;;;24.43;;
353;SDS011;165;53.592;10.044;2022-12-18T22:11:56;26.53;;;24.20;;
353;SDS011;165;53.592;10.044;2022-12-18T22:14:24;29.87;;;22.47;;
353;SDS011;165;53.592;10.044;2022-12-18T22:16:50;28.70;;;22.90;;
353;SDS011;165;53.592;10.044;2022-12-18T22:19:16;34.93;;;24.37;;
353;SDS011;165;53.592;10.044;2022-12-18T22:21:43;24.90;;;23.33;;
353;SDS011;165;53.592;10.044;2022-12-18T22:24:12;29.63;;;22.57;;
353;SDS011;165;53.592;10.044;2022-12-18T22:26:39;33.97;;;24.10;;
353;SDS011;165;53.592;10.044;2022-12-18T22:29:06;28.00;;;22.40;;
353;SDS011;165;53.592;10.044;2022-12-18T22:31:52;33.13;;;22.73;;
353;SDS011;165;53.592;10.044;2022-12-18T22:34:18;29.73;;;22.53;;
353;SDS011;165;53.592;10.044;2022-12-18T22:36:44;30.17;;;22.90;;
353;SDS011;165;53.592;10.044;2022-12-18T22:39:13;28.93;;;22.73;;
353;SDS011;165;53.592;10.044;2022-12-18T22:41:46;32.37;;;22.90;;
353;SDS011;165;53.592;10.044;2022-12-18T22:44:12;29.97;;;24.83;;
353;SDS011;165;53.592;10.044;2022-12-18T22:46:40;33.97;;;24.23;;
353;SDS011;165;53.592;10.044;2022-12-18T22:49:11;30.40;;;22.73;;
353;SDS011;165;53.592;10.044;2022-12-18T22:51:38;33.60;;;24.90;;
353;SDS011;165;53.592;10.044;2022-12-18T22:54:03;26.73;;;21.70;;
353;SDS011;165;53.592;10.044;2022-12-18T22:56:29;32.43;;;23.87;;
353;SDS011;165;53.592;10.044;2022-12-18T22:58:55;30.77;;;24.30;;
353;SDS011;165;53.592;10.044;2022-12-18T23:01:21;26.73;;;22.20;;
353;SDS011;165;53.592;10.044;2022-12-18T23:03:49;29.70;;;23.43;;
353;SDS011;165;53.592;10.044;2022-12-18T23:06:15;27.07;;;22.97;;
353;SDS011;165;53.592;10.044;2022-12-18T23:08:42;30.20;;;23.80;;
353;SDS011;165;53.592;10.044;2022-12-18T23:11:07;34.53;;;24.17;;
353;SDS011;165;53.592;10.044;2022-12-18T23:13:33;31.10;;;22.97;;
353;SDS011;165;53.592;10.044;2022-12-18T23:15:59;33.70;;;22.60;;
353;SDS011;165;53.592;10.044;2022-12-18T23:18:27;32.53;;;24.73;;
353;SDS011;165;53.592;10.044;2022-12-18T23:20:53;31.03;;;22.87;;
353;SDS011;165;53.592;10.044;2022-12-18T23:23:18;26.57;;;22.37;;
353;SDS011;165;53.592;10.044;2022-12-18T23:25:44;32.73;;;23.30;;
353;SDS011;165;53.592;10.044;2022-12-18T23:28:09;28.60;;;22.17;;
353;SDS011;165;53.592;10.044;2022-12-18T23:30:35;33.47;;;24.40;;
353;SDS011;165;53.592;10.044;2022-12-18T23:33:00;32.70;;;22.27;;
353;SDS011;165;53.592;10.044;2022-12-18T23:35:26;29.20;;;23.80;;
353;SDS011;165;53.592;10.044;2022-12-18T23:37:51;31.70;;;23.70;;
353;SDS011;165;53.592;10.044;2022-12-18T23:40:17;34.90;;;24.10;;
353;SDS011;165;53.592;10.044;2022-12-18T23:42:42;29.10;;;24.57;;
353;SDS011;165;53.592;10.044;2022-12-18T23:45:08;28.03;;;23.40;;
353;SDS011;165;53.592;10.044;2022-12-18T23:47:34;28.17;;;23.27;;
353;SDS011;165;53.592;10.044;2022-12-18T23:49:59;30.53;;;24.50;;
353;SDS011;165;53.592;10.044;2022-12-18T23:52:25;28.67;;;22.73;;
353;SDS011;165;53.592;10.044;2022-12-18T23:54:51;29.50;;;23.63;;
353;SDS011;165;53.592;10.044;2022-12-18T23:57:16;31.57;;;22.70;;
353;SDS011;165;53.592;10.044;2022-12-18T23:59:42;30.93;;;23.70;;
